sensor_id;sensor_type;location;lat;lon;timestamp;temperature;humidity
20946;DHT22;10632;51.276;7.116;2022-11-12T00:00:14;9.90;99.90
20946;DHT22;10632;51.276;7.116;2022-11-12T00:02:43;10.00;99.90
20946;DHT22;10632;51.276;7.116;2022-11-12T00:05:12;10.00;99.90
20946;DHT22;10632;51.276;7.116;2022-11-12T00:07:39;10.10;99.90
20946;DHT22;10632;51.276;7.116;2022-11-12T00:10:06;10.00;99.90
20946;DHT22;10632;51.276;7.116;2022-11-12T00:12:39;10.00;99.90
20946;DHT22;10632;51.276;7.116;2022-11-12T00:15:07;10.00;99.90
20946;DHT22;10632;51.276;7.116;2022-11-12T00:17:37;10.00;99.90
20946;DHT22;10632;51.276;7.116;2022-11-12T00:20:07;10.00;99.90
20946;DHT22;10632;51.276;7.116;2022-11-12T00:22:34;10.00;99.90
20946;DHT22;10632;51.276;7.116;2022-11-12T00:25:02;9.90;99.90
20946;DHT22;10632;51.276;7.116;2022-11-12T00:27:34;9.90;99.90
20946;DHT22;10632;51.276;7.116;2022-11-12T00:30:01;9.90;99.90
20946;DHT22;10632;51.276;7.116;2022-11-12T00:32:31;9.80;99.90
20946;DHT22;10632;51.276;7.116;2022-11-12T00:34:58;9.70;99.90
20946;DHT22;10632;51.276;7.116;2022-11-12T00:37:26;9.70;99.90
20946;DHT22;10632;51.276;7.116;2022-11-12T00:39:53;9.70;99.90
20946;DHT22;10632;51.276;7.116;2022-11-12T00:42:20;9.60;99.90
20946;DHT22;10632;51.276;7.116;2022-11-12T00:44:47;9.60;99.90
20946;DHT22;10632;51.276;7.116;2022-11-12T00:47:16;9.60;99.90
20946;DHT22;10632;51.276;7.116;2022-11-12T00:49:46;9.50;99.90
20946;DHT22;10632;51.276;7.116;2022-11-12T00:52:13;9.50;99.90
20946;DHT22;10632;51.276;7.116;2022-11-12T00:54:41;9.50;99.90
20946;DHT22;10632;51.276;7.116;2022-11-12T00:57:12;9.40;99.90
20946;DHT22;10632;51.276;7.116;2022-11-12T00:59:39;9.40;99.90
20946;DHT22;10632;51.276;7.116;2022-11-12T01:02:05;9.40;99.90
20946;DHT22;10632;51.276;7.116;2022-11-12T01:04:33;9.30;99.90
20946;DHT22;10632;51.276;7.116;2022-11-12T01:07:00;9.30;99.90
20946;DHT22;10632;51.276;7.116;2022-11-12T01:09:26;9.30;99.90
20946;DHT22;10632;51.276;7.116;2022-11-12T01:11:55;9.30;99.90
20946;DHT22;10632;51.276;7.116;2022-11-12T01:14:22;9.30;99.90
20946;DHT22;10632;51.276;7.116;2022-11-12T01:16:49;9.30;99.90
20946;DHT22;10632;51.276;7.116;2022-11-12T01:19:16;9.30;99.90
20946;DHT22;10632;51.276;7.116;2022-11-12T01:21:44;9.20;99.90
20946;DHT22;10632;51.276;7.116;2022-11-12T01:24:11;9.30;99.90
20946;DHT22;10632;51.276;7.116;2022-11-12T01:26:39;9.40;99.90
20946;DHT22;10632;51.276;7.116;2022-11-12T01:29:07;9.40;99.90
20946;DHT22;10632;51.276;7.116;2022-11-12T01:31:36;9.40;99.90
20946;DHT22;10632;51.276;7.116;2022-11-12T01:34:05;9.40;99.90
20946;DHT22;10632;51.276;7.116;2022-11-12T01:36:33;9.40;99.90
20946;DHT22;10632;51.276;7.116;2022-11-12T01:39:02;9.40;99.90
20946;DHT22;10632;51.276;7.116;2022-11-12T01:41:33;9.40;99.90
20946;DHT22;10632;51.276;7.116;2022-11-12T01:44:08;9.40;99.90
20946;DHT22;10632;51.276;7.116;2022-11-12T01:46:39;9.40;99.90
20946;DHT22;10632;51.276;7.116;2022-11-12T01:49:11;9.40;99.90
20946;DHT22;10632;51.276;7.116;2022-11-12T01:51:44;9.40;99.90
20946;DHT22;10632;51.276;7.116;2022-11-12T01:54:16;9.40;99.90
20946;DHT22;10632;51.276;7.116;2022-11-12T01:56:44;9.40;99.90
20946;DHT22;10632;51.276;7.116;2022-11-12T01:59:19;9.40;99.90
20946;DHT22;10632;51.276;7.116;2022-11-12T02:01:47;9.30;99.90
20946;DHT22;10632;51.276;7.116;2022-11-12T02:04:14;9.30;99.90
20946;DHT22;10632;51.276;7.116;2022-11-12T02:06:42;9.20;99.90
20946;DHT22;10632;51.276;7.116;2022-11-12T02:09:09;9.30;99.90
20946;DHT22;10632;51.276;7.116;2022-11-12T02:11:36;9.20;99.90
20946;DHT22;10632;51.276;7.116;2022-11-12T02:14:03;9.20;99.90
20946;DHT22;10632;51.276;7.116;2022-11-12T02:16:33;9.20;99.90
20946;DHT22;10632;51.276;7.116;2022-11-12T02:19:01;9.10;99.90
20946;DHT22;10632;51.276;7.116;2022-11-12T02:21:30;9.10;99.90
20946;DHT22;10632;51.276;7.116;2022-11-12T02:24:02;9.10;99.90
20946;DHT22;10632;51.276;7.116;2022-11-12T02:26:32;9.10;99.90
20946;DHT22;10632;51.276;7.116;2022-11-12T02:29:00;9.10;99.90
20946;DHT22;10632;51.276;7.116;2022-11-12T02:31:27;9.00;99.90
20946;DHT22;10632;51.276;7.116;2022-11-12T02:33:55;9.00;99.90
20946;DHT22;10632;51.276;7.116;2022-11-12T02:36:22;9.00;99.90
20946;DHT22;10632;51.276;7.116;2022-11-12T02:38:50;9.00;99.90
20946;DHT22;10632;51.276;7.116;2022-11-12T02:41:17;8.90;99.90
20946;DHT22;10632;51.276;7.116;2022-11-12T02:43:44;8.90;99.90
20946;DHT22;10632;51.276;7.116;2022-11-12T02:46:11;8.80;99.90
20946;DHT22;10632;51.276;7.116;2022-11-12T02:48:38;8.80;99.90
20946;DHT22;10632;51.276;7.116;2022-11-12T02:51:06;8.80;99.90
20946;DHT22;10632;51.276;7.116;2022-11-12T02:53:33;8.80;99.90
20946;DHT22;10632;51.276;7.116;2022-11-12T02:56:04;8.70;99.90
20946;DHT22;10632;51.276;7.116;2022-11-12T02:58:31;8.70;99.90
20946;DHT22;10632;51.276;7.116;2022-11-12T03:01:01;8.70;99.90
20946;DHT22;10632;51.276;7.116;2022-11-12T03:03:28;8.70;99.90
20946;DHT22;10632;51.276;7.116;2022-11-12T03:05:56;8.70;99.90
20946;DHT22;10632;51.276;7.116;2022-11-12T03:08:24;8.70;99.90
20946;DHT22;10632;51.276;7.116;2022-11-12T03:10:51;8.60;99.90
20946;DHT22;10632;51.276;7.116;2022-11-12T03:13:20;8.60;99.90
20946;DHT22;10632;51.276;7.116;2022-11-12T03:15:50;8.60;99.90
20946;DHT22;10632;51.276;7.116;2022-11-12T03:18:23;8.60;99.90
20946;DHT22;10632;51.276;7.116;2022-11-12T03:20:50;8.60;99.90
20946;DHT22;10632;51.276;7.116;2022-11-12T03:23:17;8.60;99.90
20946;DHT22;10632;51.276;7.116;2022-11-12T03:25:44;8.60;99.90
20946;DHT22;10632;51.276;7.116;2022-11-12T03:28:13;8.50;99.90
20946;DHT22;10632;51.276;7.116;2022-11-12T03:30:43;8.50;99.90
20946;DHT22;10632;51.276;7.116;2022-11-12T03:33:12;8.50;99.90
20946;DHT22;10632;51.276;7.116;2022-11-12T03:35:39;8.50;99.90
20946;DHT22;10632;51.276;7.116;2022-11-12T03:38:07;8.50;99.90
20946;DHT22;10632;51.276;7.116;2022-11-12T03:40:34;8.50;99.90
20946;DHT22;10632;51.276;7.116;2022-11-12T03:43:01;8.50;99.90
20946;DHT22;10632;51.276;7.116;2022-11-12T03:45:28;8.50;99.90
20946;DHT22;10632;51.276;7.116;2022-11-12T03:47:57;8.40;99.90
20946;DHT22;10632;51.276;7.116;2022-11-12T03:50:27;8.40;99.90
20946;DHT22;10632;51.276;7.116;2022-11-12T03:52:56;8.40;99.90
20946;DHT22;10632;51.276;7.116;2022-11-12T03:55:26;8.40;99.90
20946;DHT22;10632;51.276;7.116;2022-11-12T03:57:54;8.40;99.90
20946;DHT22;10632;51.276;7.116;2022-11-12T04:00:24;8.40;99.90
20946;DHT22;10632;51.276;7.116;2022-11-12T04:02:58;8.30;99.90
20946;DHT22;10632;51.276;7.116;2022-11-12T04:05:25;8.30;99.90
20946;DHT22;10632;51.276;7.116;2022-11-12T04:08:16;8.30;99.90
20946;DHT22;10632;51.276;7.116;2022-11-12T04:11:03;8.30;99.90
20946;DHT22;10632;51.276;7.116;2022-11-12T04:13:30;8.30;99.90
20946;DHT22;10632;51.276;7.116;2022-11-12T04:15:59;8.30;99.90
20946;DHT22;10632;51.276;7.116;2022-11-12T04:18:47;8.30;99.90
20946;DHT22;10632;51.276;7.116;2022-11-12T04:21:35;8.30;99.90
20946;DHT22;10632;51.276;7.116;2022-11-12T04:24:22;8.30;99.90
20946;DHT22;10632;51.276;7.116;2022-11-12T04:27:09;8.30;99.90
20946;DHT22;10632;51.276;7.116;2022-11-12T04:29:36;8.30;99.90
20946;DHT22;10632;51.276;7.116;2022-11-12T04:32:21;8.30;99.90
20946;DHT22;10632;51.276;7.116;2022-11-12T04:34:49;8.30;99.90
20946;DHT22;10632;51.276;7.116;2022-11-12T04:37:19;8.30;99.90
20946;DHT22;10632;51.276;7.116;2022-11-12T04:39:46;8.30;99.90
20946;DHT22;10632;51.276;7.116;2022-11-12T04:42:13;8.20;99.90
20946;DHT22;10632;51.276;7.116;2022-11-12T04:44:57;8.20;99.90
20946;DHT22;10632;51.276;7.116;2022-11-12T04:47:30;8.20;99.90
20946;DHT22;10632;51.276;7.116;2022-11-12T04:49:59;8.10;99.90
20946;DHT22;10632;51.276;7.116;2022-11-12T04:52:27;8.00;99.90
20946;DHT22;10632;51.276;7.116;2022-11-12T04:54:54;8.00;99.90
20946;DHT22;10632;51.276;7.116;2022-11-12T04:57:21;8.00;99.90
20946;DHT22;10632;51.276;7.116;2022-11-12T04:59:51;7.90;99.90
20946;DHT22;10632;51.276;7.116;2022-11-12T05:02:18;7.90;99.90
20946;DHT22;10632;51.276;7.116;2022-11-12T05:04:45;7.90;99.90
20946;DHT22;10632;51.276;7.116;2022-11-12T05:07:14;7.90;99.90
20946;DHT22;10632;51.276;7.116;2022-11-12T05:09:41;7.90;99.90
20946;DHT22;10632;51.276;7.116;2022-11-12T05:12:08;8.00;99.90
20946;DHT22;10632;51.276;7.116;2022-11-12T05:14:35;8.00;99.90
20946;DHT22;10632;51.276;7.116;2022-11-12T05:17:02;8.00;99.90
20946;DHT22;10632;51.276;7.116;2022-11-12T05:19:31;8.00;99.90
20946;DHT22;10632;51.276;7.116;2022-11-12T05:22:02;8.00;99.90
20946;DHT22;10632;51.276;7.116;2022-11-12T05:24:38;8.00;99.90
20946;DHT22;10632;51.276;7.116;2022-11-12T05:27:08;8.00;99.90
20946;DHT22;10632;51.276;7.116;2022-11-12T05:29:35;8.00;99.90
20946;DHT22;10632;51.276;7.116;2022-11-12T05:32:12;8.10;99.90
20946;DHT22;10632;51.276;7.116;2022-11-12T05:34:40;8.00;99.90
20946;DHT22;10632;51.276;7.116;2022-11-12T05:37:12;8.00;99.90
20946;DHT22;10632;51.276;7.116;2022-11-12T05:39:41;8.10;99.90
20946;DHT22;10632;51.276;7.116;2022-11-12T05:42:08;8.10;99.90
20946;DHT22;10632;51.276;7.116;2022-11-12T05:44:35;8.10;99.90
20946;DHT22;10632;51.276;7.116;2022-11-12T05:47:02;8.10;99.90
20946;DHT22;10632;51.276;7.116;2022-11-12T05:49:31;8.10;99.90
20946;DHT22;10632;51.276;7.116;2022-11-12T05:52:01;8.10;99.90
20946;DHT22;10632;51.276;7.116;2022-11-12T05:54:28;8.20;99.90
20946;DHT22;10632;51.276;7.116;2022-11-12T05:57:01;8.20;99.90
20946;DHT22;10632;51.276;7.116;2022-11-12T05:59:28;8.20;99.90
20946;DHT22;10632;51.276;7.116;2022-11-12T06:01:58;8.20;99.90
20946;DHT22;10632;51.276;7.116;2022-11-12T06:04:25;8.20;99.90
20946;DHT22;10632;51.276;7.116;2022-11-12T06:06:52;8.20;99.90
20946;DHT22;10632;51.276;7.116;2022-11-12T06:09:19;8.20;99.90
20946;DHT22;10632;51.276;7.116;2022-11-12T06:11:46;8.20;99.90
20946;DHT22;10632;51.276;7.116;2022-11-12T06:14:14;8.20;99.90
20946;DHT22;10632;51.276;7.116;2022-11-12T06:16:41;8.20;99.90
20946;DHT22;10632;51.276;7.116;2022-11-12T06:19:07;8.20;99.90
20946;DHT22;10632;51.276;7.116;2022-11-12T06:21:37;8.20;99.90
20946;DHT22;10632;51.276;7.116;2022-11-12T06:24:05;8.20;99.90
20946;DHT22;10632;51.276;7.116;2022-11-12T06:26:31;8.20;99.90
20946;DHT22;10632;51.276;7.116;2022-11-12T06:28:58;8.20;99.90
20946;DHT22;10632;51.276;7.116;2022-11-12T06:31:26;8.30;99.90
20946;DHT22;10632;51.276;7.116;2022-11-12T06:33:53;8.30;99.90
20946;DHT22;10632;51.276;7.116;2022-11-12T06:36:20;8.20;99.90
20946;DHT22;10632;51.276;7.116;2022-11-12T06:38:47;8.20;99.90
20946;DHT22;10632;51.276;7.116;2022-11-12T06:41:14;8.30;99.90
20946;DHT22;10632;51.276;7.116;2022-11-12T06:43:41;8.30;99.90
20946;DHT22;10632;51.276;7.116;2022-11-12T06:46:11;8.20;99.90
20946;DHT22;10632;51.276;7.116;2022-11-12T06:48:40;8.30;99.90
20946;DHT22;10632;51.276;7.116;2022-11-12T06:51:09;8.30;99.90
20946;DHT22;10632;51.276;7.116;2022-11-12T06:53:37;8.40;99.90
20946;DHT22;10632;51.276;7.116;2022-11-12T06:56:05;8.40;99.90
20946;DHT22;10632;51.276;7.116;2022-11-12T06:58:33;8.40;99.90
20946;DHT22;10632;51.276;7.116;2022-11-12T07:01:05;8.50;99.90
20946;DHT22;10632;51.276;7.116;2022-11-12T07:03:32;8.40;99.90
20946;DHT22;10632;51.276;7.116;2022-11-12T07:06:04;8.50;99.90
20946;DHT22;10632;51.276;7.116;2022-11-12T07:08:32;8.50;99.90
20946;DHT22;10632;51.276;7.116;2022-11-12T07:10:59;8.60;99.90
20946;DHT22;10632;51.276;7.116;2022-11-12T07:13:28;8.60;99.90
20946;DHT22;10632;51.276;7.116;2022-11-12T07:15:56;8.70;99.90
20946;DHT22;10632;51.276;7.116;2022-11-12T07:18:24;8.70;99.90
20946;DHT22;10632;51.276;7.116;2022-11-12T07:20:56;8.70;99.90
20946;DHT22;10632;51.276;7.116;2022-11-12T07:23:25;8.70;99.90
20946;DHT22;10632;51.276;7.116;2022-11-12T07:25:56;8.70;99.90
20946;DHT22;10632;51.276;7.116;2022-11-12T07:28:23;8.70;99.90
20946;DHT22;10632;51.276;7.116;2022-11-12T07:30:54;8.70;99.90
20946;DHT22;10632;51.276;7.116;2022-11-12T07:33:22;8.80;99.90
20946;DHT22;10632;51.276;7.116;2022-11-12T07:35:56;8.80;99.90
20946;DHT22;10632;51.276;7.116;2022-11-12T07:38:25;8.90;99.90
20946;DHT22;10632;51.276;7.116;2022-11-12T07:40:57;8.90;99.90
20946;DHT22;10632;51.276;7.116;2022-11-12T07:43:24;8.90;99.90
20946;DHT22;10632;51.276;7.116;2022-11-12T07:45:51;8.90;99.90
20946;DHT22;10632;51.276;7.116;2022-11-12T07:48:18;9.00;99.90
20946;DHT22;10632;51.276;7.116;2022-11-12T07:50:45;9.00;99.90
20946;DHT22;10632;51.276;7.116;2022-11-12T07:53:12;9.00;99.90
20946;DHT22;10632;51.276;7.116;2022-11-12T07:55:40;9.10;99.90
20946;DHT22;10632;51.276;7.116;2022-11-12T07:58:07;9.20;99.90
20946;DHT22;10632;51.276;7.116;2022-11-12T08:00:34;9.20;99.90
20946;DHT22;10632;51.276;7.116;2022-11-12T08:03:01;9.30;99.90
20946;DHT22;10632;51.276;7.116;2022-11-12T08:05:28;9.40;99.90
20946;DHT22;10632;51.276;7.116;2022-11-12T08:07:55;9.40;99.90
20946;DHT22;10632;51.276;7.116;2022-11-12T08:10:22;9.50;99.90
20946;DHT22;10632;51.276;7.116;2022-11-12T08:12:50;9.50;99.90
20946;DHT22;10632;51.276;7.116;2022-11-12T08:15:17;9.50;99.90
20946;DHT22;10632;51.276;7.116;2022-11-12T08:17:45;9.60;99.90
20946;DHT22;10632;51.276;7.116;2022-11-12T08:20:12;9.60;99.90
20946;DHT22;10632;51.276;7.116;2022-11-12T08:22:41;9.70;99.90
20946;DHT22;10632;51.276;7.116;2022-11-12T08:25:08;9.70;99.90
20946;DHT22;10632;51.276;7.116;2022-11-12T08:27:35;9.70;99.90
20946;DHT22;10632;51.276;7.116;2022-11-12T08:30:04;9.80;99.90
20946;DHT22;10632;51.276;7.116;2022-11-12T08:32:31;9.80;99.90
20946;DHT22;10632;51.276;7.116;2022-11-12T08:34:58;9.90;99.90
20946;DHT22;10632;51.276;7.116;2022-11-12T08:37:25;10.00;99.90
20946;DHT22;10632;51.276;7.116;2022-11-12T08:39:52;10.10;99.90
20946;DHT22;10632;51.276;7.116;2022-11-12T08:42:19;10.20;99.90
20946;DHT22;10632;51.276;7.116;2022-11-12T08:44:46;10.20;99.90
20946;DHT22;10632;51.276;7.116;2022-11-12T08:47:14;10.30;99.90
20946;DHT22;10632;51.276;7.116;2022-11-12T08:49:41;10.40;99.90
20946;DHT22;10632;51.276;7.116;2022-11-12T08:52:08;10.50;99.90
20946;DHT22;10632;51.276;7.116;2022-11-12T08:54:35;10.70;99.90
20946;DHT22;10632;51.276;7.116;2022-11-12T08:57:02;10.80;99.90
20946;DHT22;10632;51.276;7.116;2022-11-12T08:59:28;10.90;99.90
20946;DHT22;10632;51.276;7.116;2022-11-12T09:01:55;11.10;99.90
20946;DHT22;10632;51.276;7.116;2022-11-12T09:04:24;11.20;99.90
20946;DHT22;10632;51.276;7.116;2022-11-12T09:06:51;11.30;99.90
20946;DHT22;10632;51.276;7.116;2022-11-12T09:09:17;11.40;99.90
20946;DHT22;10632;51.276;7.116;2022-11-12T09:11:47;11.50;99.90
20946;DHT22;10632;51.276;7.116;2022-11-12T09:14:14;11.60;99.90
20946;DHT22;10632;51.276;7.116;2022-11-12T09:16:41;11.70;99.90
20946;DHT22;10632;51.276;7.116;2022-11-12T09:19:08;11.80;99.90
20946;DHT22;10632;51.276;7.116;2022-11-12T09:21:36;11.90;99.90
20946;DHT22;10632;51.276;7.116;2022-11-12T09:24:03;12.00;99.90
20946;DHT22;10632;51.276;7.116;2022-11-12T09:26:30;12.10;99.90
20946;DHT22;10632;51.276;7.116;2022-11-12T09:28:57;12.20;99.90
20946;DHT22;10632;51.276;7.116;2022-11-12T09:31:25;12.30;99.90
20946;DHT22;10632;51.276;7.116;2022-11-12T09:33:51;12.40;99.90
20946;DHT22;10632;51.276;7.116;2022-11-12T09:36:18;12.50;99.90
20946;DHT22;10632;51.276;7.116;2022-11-12T09:38:47;12.50;99.90
20946;DHT22;10632;51.276;7.116;2022-11-12T09:41:18;12.60;99.90
20946;DHT22;10632;51.276;7.116;2022-11-12T09:43:50;12.60;99.90
20946;DHT22;10632;51.276;7.116;2022-11-12T09:46:32;12.80;99.90
20946;DHT22;10632;51.276;7.116;2022-11-12T09:49:05;12.90;99.90
20946;DHT22;10632;51.276;7.116;2022-11-12T09:51:35;13.00;99.90
20946;DHT22;10632;51.276;7.116;2022-11-12T09:54:17;13.20;99.90
20946;DHT22;10632;51.276;7.116;2022-11-12T09:56:46;13.30;99.90
20946;DHT22;10632;51.276;7.116;2022-11-12T09:59:13;13.40;99.90
20946;DHT22;10632;51.276;7.116;2022-11-12T10:01:48;13.50;99.90
20946;DHT22;10632;51.276;7.116;2022-11-12T10:04:45;13.70;99.90
20946;DHT22;10632;51.276;7.116;2022-11-12T10:07:21;13.90;99.90
20946;DHT22;10632;51.276;7.116;2022-11-12T10:10:00;14.10;99.90
20946;DHT22;10632;51.276;7.116;2022-11-12T10:12:38;14.20;99.90
20946;DHT22;10632;51.276;7.116;2022-11-12T10:15:38;14.30;99.90
20946;DHT22;10632;51.276;7.116;2022-11-12T10:18:38;14.60;99.80
20946;DHT22;10632;51.276;7.116;2022-11-12T10:21:21;14.70;99.80
20946;DHT22;10632;51.276;7.116;2022-11-12T10:23:51;14.80;99.00
20946;DHT22;10632;51.276;7.116;2022-11-12T10:26:21;14.90;98.70
20946;DHT22;10632;51.276;7.116;2022-11-12T10:28:51;14.90;99.10
20946;DHT22;10632;51.276;7.116;2022-11-12T10:31:21;14.90;99.20
20946;DHT22;10632;51.276;7.116;2022-11-12T10:33:49;14.90;99.20
20946;DHT22;10632;51.276;7.116;2022-11-12T10:36:27;14.90;99.20
20946;DHT22;10632;51.276;7.116;2022-11-12T10:38:56;15.00;99.70
20946;DHT22;10632;51.276;7.116;2022-11-12T10:41:26;15.00;99.90
20946;DHT22;10632;51.276;7.116;2022-11-12T10:43:56;15.10;99.90
20946;DHT22;10632;51.276;7.116;2022-11-12T10:46:25;15.10;99.90
20946;DHT22;10632;51.276;7.116;2022-11-12T10:48:55;15.10;99.90
20946;DHT22;10632;51.276;7.116;2022-11-12T10:51:25;15.20;99.90
20946;DHT22;10632;51.276;7.116;2022-11-12T10:53:53;15.20;98.80
20946;DHT22;10632;51.276;7.116;2022-11-12T10:56:26;15.20;99.00
20946;DHT22;10632;51.276;7.116;2022-11-12T10:59:14;15.30;99.40
20946;DHT22;10632;51.276;7.116;2022-11-12T11:01:41;15.30;99.20
20946;DHT22;10632;51.276;7.116;2022-11-12T11:04:19;15.30;99.10
20946;DHT22;10632;51.276;7.116;2022-11-12T11:06:57;15.30;98.90
20946;DHT22;10632;51.276;7.116;2022-11-12T11:09:24;15.40;98.40
20946;DHT22;10632;51.276;7.116;2022-11-12T11:11:53;15.40;98.60
20946;DHT22;10632;51.276;7.116;2022-11-12T11:14:29;15.40;98.60
20946;DHT22;10632;51.276;7.116;2022-11-12T11:16:59;15.40;98.90
20946;DHT22;10632;51.276;7.116;2022-11-12T11:19:33;15.50;98.00
20946;DHT22;10632;51.276;7.116;2022-11-12T11:22:18;15.50;98.30
20946;DHT22;10632;51.276;7.116;2022-11-12T11:24:58;15.60;98.20
20946;DHT22;10632;51.276;7.116;2022-11-12T11:27:38;15.60;99.00
20946;DHT22;10632;51.276;7.116;2022-11-12T11:30:11;15.70;98.30
20946;DHT22;10632;51.276;7.116;2022-11-12T11:35:51;15.80;97.90
20946;DHT22;10632;51.276;7.116;2022-11-12T11:38:26;15.80;97.50
20946;DHT22;10632;51.276;7.116;2022-11-12T11:41:01;15.90;97.80
20946;DHT22;10632;51.276;7.116;2022-11-12T11:43:41;15.90;98.20
20946;DHT22;10632;51.276;7.116;2022-11-12T11:46:15;15.90;98.30
20946;DHT22;10632;51.276;7.116;2022-11-12T11:51:45;16.00;98.60
20946;DHT22;10632;51.276;7.116;2022-11-12T11:54:33;16.00;98.50
20946;DHT22;10632;51.276;7.116;2022-11-12T11:57:10;16.00;98.20
20946;DHT22;10632;51.276;7.116;2022-11-12T11:59:48;16.00;98.40
20946;DHT22;10632;51.276;7.116;2022-11-12T12:05:24;16.10;98.40
20946;DHT22;10632;51.276;7.116;2022-11-12T12:07:59;16.20;97.80
20946;DHT22;10632;51.276;7.116;2022-11-12T12:10:34;16.20;98.50
20946;DHT22;10632;51.276;7.116;2022-11-12T12:13:08;16.40;98.60
20946;DHT22;10632;51.276;7.116;2022-11-12T12:15:50;16.40;97.40
20946;DHT22;10632;51.276;7.116;2022-11-12T12:18:31;16.40;97.50
20946;DHT22;10632;51.276;7.116;2022-11-12T12:21:05;16.50;97.80
20946;DHT22;10632;51.276;7.116;2022-11-12T12:23:36;16.70;98.30
20946;DHT22;10632;51.276;7.116;2022-11-12T12:26:11;17.00;98.50
20946;DHT22;10632;51.276;7.116;2022-11-12T12:28:43;17.40;97.60
20946;DHT22;10632;51.276;7.116;2022-11-12T12:31:14;17.80;98.20
20946;DHT22;10632;51.276;7.116;2022-11-12T12:33:47;18.10;98.30
20946;DHT22;10632;51.276;7.116;2022-11-12T12:36:23;18.30;98.30
20946;DHT22;10632;51.276;7.116;2022-11-12T12:38:54;18.60;96.40
20946;DHT22;10632;51.276;7.116;2022-11-12T12:41:25;18.90;95.30
20946;DHT22;10632;51.276;7.116;2022-11-12T12:43:57;19.10;95.00
20946;DHT22;10632;51.276;7.116;2022-11-12T12:46:31;19.40;95.00
20946;DHT22;10632;51.276;7.116;2022-11-12T12:49:02;19.70;94.90
20946;DHT22;10632;51.276;7.116;2022-11-12T12:51:32;19.90;95.00
20946;DHT22;10632;51.276;7.116;2022-11-12T12:53:59;20.10;93.40
20946;DHT22;10632;51.276;7.116;2022-11-12T12:56:43;20.20;93.40
20946;DHT22;10632;51.276;7.116;2022-11-12T12:59:19;20.40;93.90
20946;DHT22;10632;51.276;7.116;2022-11-12T13:01:55;20.50;92.50
20946;DHT22;10632;51.276;7.116;2022-11-12T13:04:55;20.50;92.40
20946;DHT22;10632;51.276;7.116;2022-11-12T13:07:40;20.60;92.20
20946;DHT22;10632;51.276;7.116;2022-11-12T13:13:26;20.70;91.60
20946;DHT22;10632;51.276;7.116;2022-11-12T13:15:54;20.60;91.90
20946;DHT22;10632;51.276;7.116;2022-11-12T13:19:00;20.70;93.00
20946;DHT22;10632;51.276;7.116;2022-11-12T13:21:28;20.70;92.80
20946;DHT22;10632;51.276;7.116;2022-11-12T13:23:57;20.60;92.90
20946;DHT22;10632;51.276;7.116;2022-11-12T13:26:50;20.60;93.60
20946;DHT22;10632;51.276;7.116;2022-11-12T13:29:39;20.50;94.10
20946;DHT22;10632;51.276;7.116;2022-11-12T13:32:40;20.50;93.30
20946;DHT22;10632;51.276;7.116;2022-11-12T13:35:35;20.10;93.60
20946;DHT22;10632;51.276;7.116;2022-11-12T13:38:12;19.80;93.30
20946;DHT22;10632;51.276;7.116;2022-11-12T13:40:43;19.60;93.40
20946;DHT22;10632;51.276;7.116;2022-11-12T13:43:29;19.10;94.00
20946;DHT22;10632;51.276;7.116;2022-11-12T13:48:44;18.70;94.40
20946;DHT22;10632;51.276;7.116;2022-11-12T13:51:17;18.60;95.60
20946;DHT22;10632;51.276;7.116;2022-11-12T13:53:46;18.50;95.10
20946;DHT22;10632;51.276;7.116;2022-11-12T13:56:26;18.20;94.80
20946;DHT22;10632;51.276;7.116;2022-11-12T13:58:53;17.90;94.10
20946;DHT22;10632;51.276;7.116;2022-11-12T14:01:22;17.60;94.60
20946;DHT22;10632;51.276;7.116;2022-11-12T14:03:50;17.40;95.30
20946;DHT22;10632;51.276;7.116;2022-11-12T14:06:23;17.30;96.10
20946;DHT22;10632;51.276;7.116;2022-11-12T14:09:11;17.30;96.20
20946;DHT22;10632;51.276;7.116;2022-11-12T14:11:52;17.30;96.80
20946;DHT22;10632;51.276;7.116;2022-11-12T14:14:28;17.20;96.40
20946;DHT22;10632;51.276;7.116;2022-11-12T14:17:08;17.10;96.70
20946;DHT22;10632;51.276;7.116;2022-11-12T14:20:01;17.10;97.20
20946;DHT22;10632;51.276;7.116;2022-11-12T14:22:38;17.00;97.70
20946;DHT22;10632;51.276;7.116;2022-11-12T14:25:15;16.90;97.30
20946;DHT22;10632;51.276;7.116;2022-11-12T14:27:46;16.80;97.10
20946;DHT22;10632;51.276;7.116;2022-11-12T14:30:17;16.70;96.90
20946;DHT22;10632;51.276;7.116;2022-11-12T14:32:46;16.70;97.10
20946;DHT22;10632;51.276;7.116;2022-11-12T14:35:35;16.60;96.90
20946;DHT22;10632;51.276;7.116;2022-11-12T14:38:09;16.40;97.20
20946;DHT22;10632;51.276;7.116;2022-11-12T14:40:41;16.40;97.10
20946;DHT22;10632;51.276;7.116;2022-11-12T14:43:18;16.30;97.20
20946;DHT22;10632;51.276;7.116;2022-11-12T14:45:47;16.20;97.50
20946;DHT22;10632;51.276;7.116;2022-11-12T14:48:15;16.20;97.60
20946;DHT22;10632;51.276;7.116;2022-11-12T14:50:44;16.10;98.00
20946;DHT22;10632;51.276;7.116;2022-11-12T14:53:16;16.00;97.90
20946;DHT22;10632;51.276;7.116;2022-11-12T14:55:50;15.90;97.80
20946;DHT22;10632;51.276;7.116;2022-11-12T14:58:20;15.80;97.90
20946;DHT22;10632;51.276;7.116;2022-11-12T15:00:53;15.70;97.70
20946;DHT22;10632;51.276;7.116;2022-11-12T15:03:24;15.70;97.80
20946;DHT22;10632;51.276;7.116;2022-11-12T15:06:07;15.60;97.60
20946;DHT22;10632;51.276;7.116;2022-11-12T15:08:38;15.50;97.30
20946;DHT22;10632;51.276;7.116;2022-11-12T15:11:21;15.50;97.20
20946;DHT22;10632;51.276;7.116;2022-11-12T15:13:52;15.50;97.70
20946;DHT22;10632;51.276;7.116;2022-11-12T15:16:23;15.50;97.90
20946;DHT22;10632;51.276;7.116;2022-11-12T15:19:16;15.40;98.10
20946;DHT22;10632;51.276;7.116;2022-11-12T15:21:45;15.30;98.20
20946;DHT22;10632;51.276;7.116;2022-11-12T15:24:19;15.20;98.30
20946;DHT22;10632;51.276;7.116;2022-11-12T15:26:51;15.20;98.20
20946;DHT22;10632;51.276;7.116;2022-11-12T15:29:24;15.10;98.20
20946;DHT22;10632;51.276;7.116;2022-11-12T15:31:54;15.00;98.40
20946;DHT22;10632;51.276;7.116;2022-11-12T15:34:26;15.00;98.20
20946;DHT22;10632;51.276;7.116;2022-11-12T15:36:54;14.90;98.00
20946;DHT22;10632;51.276;7.116;2022-11-12T15:39:23;14.90;98.00
20946;DHT22;10632;51.276;7.116;2022-11-12T15:41:58;14.80;98.10
20946;DHT22;10632;51.276;7.116;2022-11-12T15:44:30;14.70;98.20
20946;DHT22;10632;51.276;7.116;2022-11-12T15:46:58;14.70;97.70
20946;DHT22;10632;51.276;7.116;2022-11-12T15:49:25;14.70;97.50
20946;DHT22;10632;51.276;7.116;2022-11-12T15:51:52;14.70;97.10
20946;DHT22;10632;51.276;7.116;2022-11-12T15:54:19;14.60;96.60
20946;DHT22;10632;51.276;7.116;2022-11-12T15:56:48;14.60;96.60
20946;DHT22;10632;51.276;7.116;2022-11-12T15:59:16;14.60;96.70
20946;DHT22;10632;51.276;7.116;2022-11-12T16:01:44;14.50;96.80
20946;DHT22;10632;51.276;7.116;2022-11-12T16:04:13;14.40;96.50
20946;DHT22;10632;51.276;7.116;2022-11-12T16:06:40;14.40;96.60
20946;DHT22;10632;51.276;7.116;2022-11-12T16:09:07;14.30;96.60
20946;DHT22;10632;51.276;7.116;2022-11-12T16:11:34;14.30;96.60
20946;DHT22;10632;51.276;7.116;2022-11-12T16:14:06;14.20;96.50
20946;DHT22;10632;51.276;7.116;2022-11-12T16:16:36;14.20;96.80
20946;DHT22;10632;51.276;7.116;2022-11-12T16:19:10;14.10;96.40